Garberville, California
Current Conditions -  °F | °C
As of 10:10 AM on Tuesday 21 Oct 2014 (Local Time) from KFOT Reporting Station
Clear Clear  
Wind Chill: 57°   Ceiling: Unl
Heat Index: 57°   Visibility: 10mi
Dew Point: 48°   Wind: 10mph
Humidity: 72%   Direction: 120°ESE
Pressure: 30.13"   Gusts: NA
Location:  40.1°N, 123.8°W
Report Text: KFOT 211710Z AUTO 12009KT 10SM CLR 14/09 A3013 RMK AO1
Loading
Personal Weather Stations






























Interactive Weather Map
Tropical Storm Tracking
New forecast layout! Learn more

10-Day Weather Forecast

Advertisements
Track Severe Weather on mobile